createdAt,value
2018-11-11T00:00:25.424Z,0.00
2018-11-11T00:01:25.406Z,0.00
2018-11-11T00:02:25.440Z,0.00
2018-11-11T00:03:25.416Z,0.00
2018-11-11T00:04:25.426Z,0.00
2018-11-11T00:05:25.433Z,0.00
2018-11-11T00:06:25.461Z,0.00
2018-11-11T00:07:25.456Z,0.00
2018-11-11T00:08:25.460Z,0.00
2018-11-11T00:09:25.471Z,0.00
2018-11-11T00:10:25.469Z,0.00
2018-11-11T00:11:25.501Z,0.00
2018-11-11T00:12:25.475Z,0.00
2018-11-11T00:13:25.476Z,0.00
2018-11-11T00:14:25.484Z,0.00
2018-11-11T00:15:25.503Z,0.00
2018-11-11T00:16:25.513Z,0.00
2018-11-11T00:17:25.515Z,0.00
2018-11-11T00:18:25.511Z,0.00
2018-11-11T00:19:25.528Z,0.00
2018-11-11T00:20:25.528Z,0.00
2018-11-11T00:21:25.523Z,0.00
2018-11-11T00:22:25.545Z,0.00
2018-11-11T00:23:25.594Z,0.00
2018-11-11T00:24:25.542Z,0.00
2018-11-11T00:25:25.554Z,0.00
2018-11-11T00:26:25.552Z,0.00
2018-11-11T00:27:25.580Z,0.00
2018-11-11T00:28:25.593Z,0.00
2018-11-11T00:29:25.571Z,0.00
2018-11-11T00:30:25.598Z,0.00
2018-11-11T00:31:25.581Z,0.00
2018-11-11T00:32:25.588Z,0.00
2018-11-11T00:33:25.636Z,0.00
2018-11-11T00:34:25.618Z,0.00
2018-11-11T00:35:25.604Z,0.00
2018-11-11T00:36:25.606Z,0.00
2018-11-11T00:37:25.641Z,0.00
2018-11-11T00:38:25.638Z,0.00
2018-11-11T00:39:25.659Z,0.00
2018-11-11T00:40:25.654Z,0.00
2018-11-11T00:41:25.655Z,0.00
2018-11-11T00:42:25.670Z,0.00
2018-11-11T00:43:25.647Z,0.00
2018-11-11T00:44:25.650Z,0.00
2018-11-11T00:45:25.690Z,0.00
2018-11-11T00:46:25.688Z,0.00
2018-11-11T00:47:25.673Z,0.00
2018-11-11T00:48:25.689Z,0.00
2018-11-11T00:49:25.692Z,0.00
2018-11-11T00:50:25.695Z,0.00
2018-11-11T00:51:25.696Z,0.00
2018-11-11T00:52:25.725Z,0.00
2018-11-11T00:53:25.709Z,0.00
2018-11-11T00:54:25.715Z,0.00
2018-11-11T00:55:25.738Z,0.00
2018-11-11T00:56:25.762Z,0.00
2018-11-11T00:57:25.755Z,0.00
2018-11-11T00:58:25.746Z,0.00
2018-11-11T00:59:25.782Z,0.00
2018-11-11T01:00:25.744Z,0.00
2018-11-11T01:01:25.758Z,0.00
2018-11-11T01:02:25.779Z,0.00
2018-11-11T01:03:25.793Z,0.00
2018-11-11T01:04:25.793Z,0.00
2018-11-11T01:05:25.777Z,0.00
2018-11-11T01:06:25.797Z,0.00
2018-11-11T01:07:25.788Z,0.00
2018-11-11T01:08:25.821Z,0.00
2018-11-11T01:09:25.798Z,0.00
2018-11-11T01:10:25.804Z,0.00
2018-11-11T01:11:25.810Z,0.00
2018-11-11T01:12:25.978Z,0.00
2018-11-11T01:13:25.876Z,0.00
2018-11-11T01:14:25.848Z,0.00
2018-11-11T01:15:25.838Z,0.00
2018-11-11T01:16:25.839Z,0.00
2018-11-11T01:17:25.846Z,0.00
2018-11-11T01:18:25.852Z,0.00
2018-11-11T01:19:25.875Z,0.00
2018-11-11T01:20:25.884Z,0.00
2018-11-11T01:21:25.876Z,0.00
2018-11-11T01:22:25.875Z,0.00
2018-11-11T01:23:25.879Z,0.00
2018-11-11T01:24:25.952Z,0.00
2018-11-11T01:25:25.915Z,0.00
2018-11-11T01:26:25.902Z,0.00
2018-11-11T01:27:25.907Z,0.00
2018-11-11T01:28:25.914Z,0.00
2018-11-11T01:29:25.943Z,0.00
2018-11-11T01:30:25.921Z,0.00
2018-11-11T01:31:25.932Z,0.00
2018-11-11T01:32:25.930Z,0.00
2018-11-11T01:33:25.951Z,0.00
2018-11-11T01:34:26.019Z,0.00
2018-11-11T01:35:25.947Z,0.00
2018-11-11T01:36:25.951Z,0.00
2018-11-11T01:37:25.963Z,0.00
2018-11-11T01:38:25.973Z,0.00
2018-11-11T01:39:25.973Z,0.00
2018-11-11T01:40:26.000Z,0.00
2018-11-11T01:41:26.002Z,0.00
2018-11-11T01:42:25.988Z,0.00
2018-11-11T01:43:25.999Z,0.00
2018-11-11T01:44:26.001Z,0.00
2018-11-11T01:45:26.058Z,0.00
2018-11-11T01:46:26.016Z,0.00
2018-11-11T01:47:26.025Z,0.00
2018-11-11T01:48:26.023Z,0.00
2018-11-11T01:49:26.030Z,0.00
2018-11-11T01:50:26.072Z,0.00
2018-11-11T01:51:26.064Z,0.00
2018-11-11T01:52:26.067Z,0.00
2018-11-11T01:53:26.054Z,0.00
2018-11-11T01:54:26.062Z,0.00
2018-11-11T01:55:26.072Z,0.00
2018-11-11T01:56:26.119Z,0.00
2018-11-11T01:57:26.082Z,0.00
2018-11-11T01:58:26.084Z,0.00
2018-11-11T01:59:26.087Z,0.00
2018-11-11T02:00:26.120Z,0.00
2018-11-11T02:01:26.107Z,0.00
2018-11-11T02:02:26.106Z,0.00
2018-11-11T02:03:26.158Z,0.00
2018-11-11T02:04:26.115Z,0.00
2018-11-11T02:05:26.146Z,0.00
2018-11-11T02:06:26.138Z,0.00
2018-11-11T02:07:26.134Z,0.00
2018-11-11T02:08:26.141Z,0.00
2018-11-11T02:09:26.149Z,0.00
2018-11-11T02:10:26.196Z,0.00
2018-11-11T02:11:26.167Z,0.00
2018-11-11T02:12:26.191Z,0.00
2018-11-11T02:13:26.171Z,0.00
2018-11-11T02:14:26.181Z,0.00
2018-11-11T02:15:26.187Z,0.00
2018-11-11T02:16:26.187Z,0.00
2018-11-11T02:17:26.228Z,0.00
2018-11-11T02:18:26.203Z,0.00
2018-11-11T02:19:26.203Z,0.00
2018-11-11T02:20:26.216Z,0.00
2018-11-11T02:21:26.225Z,0.00
2018-11-11T02:22:26.249Z,0.00
2018-11-11T02:23:26.273Z,0.00
2018-11-11T02:24:26.254Z,0.00
2018-11-11T02:25:26.243Z,0.00
2018-11-11T02:26:26.276Z,0.00
2018-11-11T02:27:26.257Z,0.00
2018-11-11T02:28:26.301Z,0.00
2018-11-11T02:29:26.268Z,0.00
2018-11-11T02:30:26.275Z,0.00
2018-11-11T02:31:26.287Z,0.00
2018-11-11T02:32:26.301Z,0.00
2018-11-11T02:33:26.288Z,0.00
2018-11-11T02:34:26.348Z,0.00
2018-11-11T02:35:26.313Z,0.00
2018-11-11T02:36:26.302Z,0.00
2018-11-11T02:37:26.351Z,0.00
2018-11-11T02:38:26.316Z,0.00
2018-11-11T02:39:26.340Z,0.00
2018-11-11T02:40:26.328Z,0.00
2018-11-11T02:41:26.343Z,0.00
2018-11-11T02:42:26.358Z,0.00
2018-11-11T02:43:26.365Z,0.00
2018-11-11T02:44:26.373Z,0.00
2018-11-11T02:45:26.383Z,0.00
2018-11-11T02:46:26.365Z,0.00
2018-11-11T02:47:26.369Z,0.00
2018-11-11T02:48:26.378Z,0.00
2018-11-11T02:49:26.403Z,0.00
2018-11-11T02:50:26.409Z,0.00
2018-11-11T02:51:26.390Z,0.00
2018-11-11T02:52:26.399Z,0.00
2018-11-11T02:53:26.412Z,0.00
2018-11-11T02:54:26.411Z,0.00
2018-11-11T02:55:26.432Z,0.00
2018-11-11T02:56:26.435Z,0.00
2018-11-11T02:57:26.439Z,0.00
2018-11-11T02:58:26.440Z,0.00
2018-11-11T02:59:26.432Z,0.00
2018-11-11T03:00:26.479Z,0.00
2018-11-11T03:01:26.472Z,0.00
2018-11-11T03:02:26.449Z,0.00
2018-11-11T03:03:26.474Z,0.00
2018-11-11T03:04:26.599Z,0.00
2018-11-11T03:05:26.476Z,0.00
2018-11-11T03:06:26.505Z,0.00
2018-11-11T03:07:26.525Z,0.00
2018-11-11T03:08:26.485Z,0.00
2018-11-11T03:09:26.498Z,0.00
2018-11-11T03:10:26.500Z,0.00
2018-11-11T03:11:26.541Z,0.00
2018-11-11T03:12:26.507Z,0.00
2018-11-11T03:13:26.513Z,0.00
2018-11-11T03:14:26.535Z,0.00
2018-11-11T03:15:26.527Z,0.00
2018-11-11T03:16:26.557Z,0.00
2018-11-11T03:17:26.546Z,0.00
2018-11-11T03:18:26.570Z,0.00
2018-11-11T03:19:26.551Z,0.00
2018-11-11T03:20:26.551Z,0.00
2018-11-11T03:21:26.585Z,0.00
2018-11-11T03:22:26.571Z,0.00
2018-11-11T03:23:26.606Z,0.00
2018-11-11T03:24:26.599Z,0.00
2018-11-11T03:25:26.587Z,0.00
2018-11-11T03:26:26.594Z,0.00
2018-11-11T03:27:26.596Z,0.00
2018-11-11T03:28:26.641Z,0.00
2018-11-11T03:29:26.632Z,0.00
2018-11-11T03:30:26.622Z,0.00
2018-11-11T03:31:26.633Z,0.00
2018-11-11T03:32:26.623Z,0.00
2018-11-11T03:33:26.651Z,0.00
2018-11-11T03:34:26.631Z,0.00
2018-11-11T03:35:26.661Z,0.00
2018-11-11T03:36:26.644Z,0.00
2018-11-11T03:37:26.651Z,0.00
2018-11-11T03:38:26.683Z,0.00
2018-11-11T03:39:26.705Z,0.00
2018-11-11T03:40:26.667Z,0.00
2018-11-11T03:41:26.702Z,0.00
2018-11-11T03:42:26.682Z,0.00
2018-11-11T03:43:26.689Z,0.00
2018-11-11T03:44:26.727Z,0.00
2018-11-11T03:45:26.702Z,0.00
2018-11-11T03:46:26.721Z,0.00
2018-11-11T03:47:26.712Z,0.00
2018-11-11T03:48:26.749Z,0.00
2018-11-11T03:49:26.734Z,0.00
2018-11-11T03:50:26.744Z,0.00
2018-11-11T03:51:26.748Z,0.00
2018-11-11T03:52:26.752Z,0.00
2018-11-11T03:53:26.763Z,0.00
2018-11-11T03:54:26.765Z,0.00
2018-11-11T03:55:26.764Z,0.00
2018-11-11T03:56:26.778Z,0.00
2018-11-11T03:57:26.779Z,0.00
2018-11-11T03:58:26.803Z,0.00
2018-11-11T03:59:26.791Z,0.00
2018-11-11T04:00:26.803Z,0.00
2018-11-11T04:01:26.819Z,0.00
2018-11-11T04:02:26.796Z,0.00
2018-11-11T04:03:26.799Z,0.00
2018-11-11T04:04:26.814Z,0.00
2018-11-11T04:05:26.813Z,0.00
2018-11-11T04:06:26.860Z,0.00
2018-11-11T04:07:26.851Z,0.00
2018-11-11T04:08:26.857Z,0.00
2018-11-11T04:09:26.841Z,0.00
2018-11-11T04:10:26.872Z,0.00
2018-11-11T04:11:26.873Z,0.00
2018-11-11T04:12:26.851Z,0.00
2018-11-11T04:13:26.901Z,0.00
2018-11-11T04:14:26.861Z,0.00
2018-11-11T04:15:26.908Z,0.00
2018-11-11T04:16:26.876Z,0.00
2018-11-11T04:17:26.911Z,0.00
2018-11-11T04:18:26.907Z,0.00
2018-11-11T04:19:26.885Z,0.00
2018-11-11T04:20:26.900Z,0.00
2018-11-11T04:21:26.900Z,0.00
2018-11-11T04:22:26.946Z,0.00
2018-11-11T04:23:26.911Z,0.00
2018-11-11T04:24:26.937Z,0.00
2018-11-11T04:25:26.959Z,0.00
2018-11-11T04:26:26.938Z,0.00
2018-11-11T04:27:26.970Z,0.00
2018-11-11T04:28:26.944Z,0.00
2018-11-11T04:29:26.989Z,0.00
2018-11-11T04:30:26.955Z,0.00
2018-11-11T04:31:26.989Z,0.00
2018-11-11T04:32:26.977Z,0.00
2018-11-11T04:33:26.971Z,0.00
2018-11-11T04:34:26.983Z,0.00
2018-11-11T04:35:26.986Z,0.00
2018-11-11T04:36:26.996Z,0.00
2018-11-11T04:37:27.022Z,0.00
2018-11-11T04:38:27.012Z,0.00
2018-11-11T04:39:27.021Z,0.00
2018-11-11T04:40:27.043Z,0.00
2018-11-11T04:41:27.020Z,0.00
2018-11-11T04:42:27.047Z,0.00
2018-11-11T04:43:27.053Z,0.00
2018-11-11T04:44:27.045Z,0.00
2018-11-11T04:45:27.043Z,0.00
2018-11-11T04:46:27.098Z,0.00
2018-11-11T04:47:27.094Z,0.00
2018-11-11T04:48:27.076Z,0.00
2018-11-11T04:49:27.080Z,0.00
2018-11-11T04:50:27.068Z,0.00
2018-11-11T04:51:27.076Z,0.00
2018-11-11T04:52:27.104Z,0.00
2018-11-11T04:53:27.094Z,0.00
2018-11-11T04:54:27.423Z,0.00
2018-11-11T04:55:27.101Z,0.00
2018-11-11T04:56:27.101Z,0.00
2018-11-11T04:57:27.140Z,0.00
2018-11-11T04:58:27.139Z,0.00
2018-11-11T04:59:27.128Z,0.00
2018-11-11T05:00:27.127Z,0.00
2018-11-11T05:01:27.181Z,0.00
2018-11-11T05:02:27.138Z,0.00
2018-11-11T05:03:27.261Z,0.00
2018-11-11T05:04:27.182Z,0.00
2018-11-11T05:05:27.163Z,0.00
2018-11-11T05:06:27.179Z,0.00
2018-11-11T05:07:27.177Z,0.00
2018-11-11T05:08:27.174Z,0.00
2018-11-11T05:09:27.195Z,0.00
2018-11-11T05:10:27.202Z,0.00
2018-11-11T05:11:27.195Z,0.00
2018-11-11T05:12:27.192Z,0.00
2018-11-11T05:13:27.210Z,0.00
2018-11-11T05:14:27.216Z,0.00
2018-11-11T05:15:27.238Z,0.00
2018-11-11T05:16:27.230Z,0.00
2018-11-11T05:17:27.220Z,0.00
2018-11-11T05:18:27.226Z,0.00
2018-11-11T05:19:27.235Z,0.00
2018-11-11T05:20:27.266Z,0.00
2018-11-11T05:21:27.247Z,0.00
2018-11-11T05:22:27.275Z,0.00
2018-11-11T05:23:27.262Z,0.00
2018-11-11T05:24:27.262Z,0.00
2018-11-11T05:25:27.305Z,0.00
2018-11-11T05:26:27.273Z,0.00
2018-11-11T05:27:27.282Z,0.00
2018-11-11T05:28:27.284Z,0.00
2018-11-11T05:29:27.321Z,0.00
2018-11-11T05:30:27.316Z,0.00
2018-11-11T05:31:27.331Z,0.00
2018-11-11T05:32:27.301Z,0.00
2018-11-11T05:33:27.308Z,0.00
2018-11-11T05:34:27.322Z,0.00
2018-11-11T05:35:27.348Z,0.00
2018-11-11T05:36:27.341Z,0.00
2018-11-11T05:37:27.341Z,0.00
2018-11-11T05:38:27.340Z,0.00
2018-11-11T05:39:27.356Z,0.00
2018-11-11T05:40:27.384Z,0.00
2018-11-11T05:41:27.389Z,0.00
2018-11-11T05:42:27.381Z,0.00
2018-11-11T05:43:27.394Z,0.00
2018-11-11T05:44:27.373Z,0.00
2018-11-11T05:45:27.406Z,0.00
2018-11-11T05:46:27.395Z,0.00
2018-11-11T05:47:27.433Z,0.00
2018-11-11T05:48:27.393Z,0.00
2018-11-11T05:49:27.411Z,0.00
2018-11-11T05:50:27.442Z,0.00
2018-11-11T05:51:27.431Z,0.00
2018-11-11T05:52:27.444Z,0.00
2018-11-11T05:53:27.442Z,0.00
2018-11-11T05:54:27.479Z,0.00
2018-11-11T05:55:27.441Z,0.00
2018-11-11T05:56:27.448Z,0.00
2018-11-11T05:57:27.448Z,0.00
2018-11-11T05:58:27.457Z,0.00
2018-11-11T05:59:27.504Z,0.00
2018-11-11T06:00:27.465Z,0.00
2018-11-11T06:01:27.497Z,0.00
2018-11-11T06:02:27.515Z,0.00
2018-11-11T06:03:27.486Z,0.00
2018-11-11T06:04:27.494Z,0.00
2018-11-11T06:05:27.500Z,0.00
2018-11-11T06:06:27.505Z,0.00
2018-11-11T06:07:27.527Z,0.00
2018-11-11T06:08:27.531Z,0.00
2018-11-11T06:09:27.559Z,0.00
2018-11-11T06:10:27.603Z,0.00
2018-11-11T06:11:27.527Z,0.00
2018-11-11T06:12:27.537Z,0.00
2018-11-11T06:13:27.558Z,5.63
2018-11-11T06:14:27.579Z,5.63
2018-11-11T06:15:27.572Z,5.63
2018-11-11T06:16:27.554Z,5.63
2018-11-11T06:17:27.588Z,5.63
2018-11-11T06:18:27.581Z,5.63
2018-11-11T06:19:27.615Z,5.63
2018-11-11T06:20:27.588Z,5.63
2018-11-11T06:21:27.590Z,11.25
2018-11-11T06:22:27.597Z,11.25
2018-11-11T06:23:27.602Z,11.25
2018-11-11T06:24:27.628Z,11.25
2018-11-11T06:25:27.620Z,11.25
2018-11-11T06:26:27.662Z,16.88
2018-11-11T06:27:27.626Z,16.88
2018-11-11T06:28:27.633Z,16.88
2018-11-11T06:29:27.633Z,16.88
2018-11-11T06:30:27.643Z,16.88
2018-11-11T06:31:27.675Z,16.88
2018-11-11T06:32:27.649Z,16.88
2018-11-11T06:33:27.695Z,22.50
2018-11-11T06:34:27.698Z,22.50
2018-11-11T06:35:27.671Z,22.50
2018-11-11T06:36:27.716Z,22.50
2018-11-11T06:37:27.711Z,22.50
2018-11-11T06:38:27.696Z,28.13
2018-11-11T06:39:27.699Z,28.13
2018-11-11T06:40:27.702Z,28.13
2018-11-11T06:41:27.780Z,28.13
2018-11-11T06:42:27.708Z,28.13
2018-11-11T06:43:27.714Z,28.13
2018-11-11T06:44:27.720Z,28.13
2018-11-11T06:45:27.731Z,28.13
2018-11-11T06:46:27.774Z,28.13
2018-11-11T06:47:27.755Z,28.13
2018-11-11T06:48:27.745Z,28.13
2018-11-11T06:49:27.784Z,28.13
2018-11-11T06:50:27.756Z,22.50
2018-11-11T06:51:27.788Z,22.50
2018-11-11T06:52:27.811Z,22.50
2018-11-11T06:53:27.783Z,22.50
2018-11-11T06:54:27.810Z,22.50
2018-11-11T06:55:27.998Z,22.50
2018-11-11T06:56:28.495Z,22.50
2018-11-11T06:57:27.796Z,22.50
2018-11-11T06:58:27.836Z,22.50
2018-11-11T06:59:27.809Z,22.50
2018-11-11T07:00:27.827Z,22.50
2018-11-11T07:01:28.047Z,22.50
2018-11-11T07:02:28.042Z,28.13
2018-11-11T07:03:28.085Z,28.13
2018-11-11T07:04:27.890Z,33.75
2018-11-11T07:05:27.866Z,33.75
2018-11-11T07:06:27.858Z,39.38
2018-11-11T07:07:28.204Z,45.00
2018-11-11T07:08:28.026Z,45.00
2018-11-11T07:09:28.024Z,45.00
2018-11-11T07:10:27.938Z,45.00
2018-11-11T07:11:28.111Z,50.63
2018-11-11T07:12:28.183Z,50.63
2018-11-11T07:13:28.092Z,50.63
2018-11-11T07:14:28.084Z,50.63
2018-11-11T07:15:28.228Z,45.00
2018-11-11T07:16:27.974Z,39.38
2018-11-11T07:17:27.989Z,39.38
2018-11-11T07:18:27.958Z,33.75
2018-11-11T07:19:28.174Z,33.75
2018-11-11T07:20:27.991Z,33.75
2018-11-11T07:21:27.961Z,33.75
2018-11-11T07:22:27.946Z,33.75
2018-11-11T07:23:27.993Z,39.38
2018-11-11T07:24:27.959Z,39.38
2018-11-11T07:25:27.977Z,33.75
2018-11-11T07:26:27.973Z,33.75
2018-11-11T07:27:27.990Z,33.75
2018-11-11T07:28:28.006Z,33.75
2018-11-11T07:29:28.005Z,33.75
2018-11-11T07:30:27.999Z,33.75
2018-11-11T07:31:28.032Z,33.75
2018-11-11T07:32:28.011Z,33.75
2018-11-11T07:33:28.025Z,28.13
2018-11-11T07:34:28.040Z,28.13
2018-11-11T07:35:28.036Z,22.50
2018-11-11T07:36:28.054Z,22.50
2018-11-11T07:37:28.040Z,22.50
2018-11-11T07:38:28.057Z,22.50
2018-11-11T07:39:28.064Z,28.13
2018-11-11T07:40:28.070Z,28.13
2018-11-11T07:41:28.101Z,33.75
2018-11-11T07:42:28.199Z,33.75
2018-11-11T07:43:28.118Z,39.38
2018-11-11T07:44:28.109Z,45.00
2018-11-11T07:45:28.092Z,50.63
2018-11-11T07:46:28.282Z,50.63
2018-11-11T07:47:28.098Z,50.63
2018-11-11T07:48:28.124Z,50.63
2018-11-11T07:49:29.750Z,50.63
2018-11-11T07:50:28.186Z,45.00
2018-11-11T07:51:28.123Z,45.00
2018-11-11T07:52:28.127Z,50.63
2018-11-11T07:53:28.132Z,56.25
2018-11-11T07:54:28.148Z,61.88
2018-11-11T07:55:28.182Z,67.50
2018-11-11T07:56:28.153Z,78.75
2018-11-11T07:57:28.157Z,84.38
2018-11-11T07:58:28.199Z,90.00
2018-11-11T07:59:28.210Z,95.63
2018-11-11T08:00:28.194Z,90.00
2018-11-11T08:01:28.214Z,90.00
2018-11-11T08:02:28.191Z,84.38
2018-11-11T08:03:28.197Z,73.13
2018-11-11T08:04:28.192Z,73.13
2018-11-11T08:05:28.723Z,67.50
2018-11-11T08:06:28.211Z,61.88
2018-11-11T08:07:28.216Z,61.88
2018-11-11T08:08:28.237Z,67.50
2018-11-11T08:09:28.232Z,67.50
2018-11-11T08:10:28.232Z,78.75
2018-11-11T08:11:28.290Z,90.00
2018-11-11T08:12:28.273Z,95.63
2018-11-11T08:13:28.255Z,106.88
2018-11-11T08:14:28.257Z,112.50
2018-11-11T08:15:28.263Z,123.75
2018-11-11T08:16:28.276Z,123.75
2018-11-11T08:17:28.305Z,123.75
2018-11-11T08:18:28.296Z,123.75
2018-11-11T08:19:28.294Z,123.75
2018-11-11T08:20:28.310Z,123.75
2018-11-11T08:21:28.312Z,129.38
2018-11-11T08:22:28.334Z,135.00
2018-11-11T08:23:28.308Z,146.25
2018-11-11T08:24:28.324Z,163.13
2018-11-11T08:25:28.379Z,180.00
2018-11-11T08:26:28.339Z,185.63
2018-11-11T08:27:28.483Z,185.63
2018-11-11T08:28:28.338Z,180.00
2018-11-11T08:29:28.373Z,174.38
2018-11-11T08:30:28.355Z,174.38
2018-11-11T08:31:28.368Z,174.38
2018-11-11T08:32:28.418Z,163.13
2018-11-11T08:33:28.397Z,151.88
2018-11-11T08:34:28.410Z,140.63
2018-11-11T08:35:28.385Z,129.38
2018-11-11T08:36:28.397Z,118.13
2018-11-11T08:37:28.426Z,118.13
2018-11-11T08:38:28.422Z,123.75
2018-11-11T08:39:28.426Z,129.38
2018-11-11T08:40:28.542Z,135.00
2018-11-11T08:41:28.486Z,140.63
2018-11-11T08:42:28.459Z,140.63
2018-11-11T08:43:28.443Z,135.00
2018-11-11T08:44:28.878Z,129.38
2018-11-11T08:45:28.481Z,123.75
2018-11-11T08:46:28.457Z,123.75
2018-11-11T08:47:28.482Z,129.38
2018-11-11T08:48:28.481Z,129.38
2018-11-11T08:49:28.480Z,146.25
2018-11-11T08:50:28.515Z,163.13
2018-11-11T08:51:28.503Z,174.38
2018-11-11T08:52:28.489Z,191.25
2018-11-11T08:53:28.512Z,202.50
2018-11-11T08:54:28.525Z,208.13
2018-11-11T08:55:28.541Z,208.13
2018-11-11T08:56:28.527Z,202.50
2018-11-11T08:57:28.534Z,191.25
2018-11-11T08:58:28.613Z,185.63
2018-11-11T08:59:28.536Z,180.00
2018-11-11T09:00:28.566Z,185.63
2018-11-11T09:01:28.585Z,202.50
2018-11-11T09:02:28.561Z,213.75
2018-11-11T09:03:28.575Z,225.00
2018-11-11T09:04:28.596Z,219.38
2018-11-11T09:05:28.617Z,213.75
2018-11-11T09:06:28.589Z,213.75
2018-11-11T09:07:28.624Z,219.38
2018-11-11T09:08:28.634Z,225.00
2018-11-11T09:09:28.606Z,230.63
2018-11-11T09:10:28.614Z,236.25
2018-11-11T09:11:28.704Z,247.50
2018-11-11T09:12:28.628Z,253.13
2018-11-11T09:13:28.657Z,258.75
2018-11-11T09:14:28.651Z,275.63
2018-11-11T09:15:28.706Z,292.50
2018-11-11T09:16:28.753Z,298.13
2018-11-11T09:17:28.762Z,298.13
2018-11-11T09:18:28.675Z,281.25
2018-11-11T09:19:28.734Z,270.00
2018-11-11T09:20:28.709Z,258.75
2018-11-11T09:21:28.770Z,241.88
2018-11-11T09:22:28.713Z,208.13
2018-11-11T09:23:28.711Z,185.63
2018-11-11T09:24:28.716Z,168.75
2018-11-11T09:25:28.743Z,146.25
2018-11-11T09:26:28.755Z,129.38
2018-11-11T09:27:28.749Z,112.50
2018-11-11T09:28:28.763Z,106.88
2018-11-11T09:29:28.803Z,112.50
2018-11-11T09:30:28.885Z,135.00
2018-11-11T09:31:28.776Z,163.13
2018-11-11T09:32:28.768Z,180.00
2018-11-11T09:33:28.778Z,191.25
2018-11-11T09:34:28.806Z,196.88
2018-11-11T09:35:28.860Z,213.75
2018-11-11T09:36:28.848Z,219.38
2018-11-11T09:37:28.820Z,219.38
2018-11-11T09:38:28.830Z,213.75
2018-11-11T09:39:28.811Z,208.13
2018-11-11T09:40:28.847Z,202.50
2018-11-11T09:41:28.913Z,185.63
2018-11-11T09:42:28.883Z,168.75
2018-11-11T09:43:28.848Z,157.50
2018-11-11T09:44:28.874Z,146.25
2018-11-11T09:45:28.881Z,140.63
2018-11-11T09:46:28.897Z,140.63
2018-11-11T09:47:28.899Z,146.25
2018-11-11T09:48:28.875Z,163.13
2018-11-11T09:49:28.928Z,191.25
2018-11-11T09:50:28.912Z,213.75
2018-11-11T09:51:29.020Z,247.50
2018-11-11T09:52:28.922Z,275.63
2018-11-11T09:53:28.937Z,309.38
2018-11-11T09:54:28.965Z,309.38
2018-11-11T09:55:28.972Z,309.38
2018-11-11T09:56:28.933Z,298.13
2018-11-11T09:57:29.009Z,258.75
2018-11-11T09:58:28.975Z,225.00
2018-11-11T09:59:28.993Z,208.13
2018-11-11T10:00:29.044Z,196.88
2018-11-11T10:01:28.972Z,191.25
2018-11-11T10:02:28.976Z,185.63
2018-11-11T10:03:28.984Z,191.25
2018-11-11T10:04:29.056Z,180.00
2018-11-11T10:05:29.034Z,157.50
2018-11-11T10:06:29.065Z,151.88
2018-11-11T10:07:29.048Z,163.13
2018-11-11T10:08:29.058Z,168.75
2018-11-11T10:09:29.027Z,168.75
2018-11-11T10:10:29.111Z,163.13
2018-11-11T10:11:29.040Z,146.25
2018-11-11T10:12:29.182Z,135.00
2018-11-11T10:13:29.089Z,135.00
2018-11-11T10:14:29.090Z,135.00
2018-11-11T10:15:29.131Z,135.00
2018-11-11T10:16:29.105Z,129.38
2018-11-11T10:17:29.088Z,135.00
2018-11-11T10:18:29.113Z,135.00
2018-11-11T10:19:29.142Z,135.00
2018-11-11T10:20:29.428Z,135.00
2018-11-11T10:21:29.148Z,140.63
2018-11-11T10:22:29.311Z,146.25
2018-11-11T10:23:29.168Z,157.50
2018-11-11T10:24:29.163Z,157.50
2018-11-11T10:25:29.169Z,151.88
2018-11-11T10:26:29.151Z,151.88
2018-11-11T10:27:29.195Z,168.75
2018-11-11T10:28:29.249Z,180.00
2018-11-11T10:29:29.258Z,180.00
2018-11-11T10:30:29.263Z,174.38
2018-11-11T10:31:29.249Z,174.38
2018-11-11T10:32:29.198Z,185.63
2018-11-11T10:33:29.227Z,196.88
2018-11-11T10:34:29.213Z,191.25
2018-11-11T10:35:29.616Z,191.25
2018-11-11T10:36:29.261Z,180.00
2018-11-11T10:37:29.428Z,163.13
2018-11-11T10:38:29.262Z,140.63
2018-11-11T10:39:29.276Z,123.75
2018-11-11T10:40:29.266Z,118.13
2018-11-11T10:41:29.344Z,106.88
2018-11-11T10:42:29.267Z,95.63
2018-11-11T10:43:29.300Z,95.63
2018-11-11T10:44:29.416Z,90.00
2018-11-11T10:45:29.296Z,90.00
2018-11-11T10:46:29.344Z,84.38
2018-11-11T10:47:29.347Z,84.38
2018-11-11T10:48:29.333Z,84.38
2018-11-11T10:49:29.384Z,84.38
2018-11-11T10:50:29.359Z,90.00
2018-11-11T10:51:29.334Z,90.00
2018-11-11T10:52:29.361Z,90.00
2018-11-11T10:53:29.390Z,95.63
2018-11-11T10:54:29.450Z,106.88
2018-11-11T10:55:29.380Z,112.50
2018-11-11T10:56:29.403Z,118.13
2018-11-11T10:57:29.402Z,129.38
2018-11-11T10:58:29.431Z,135.00
2018-11-11T10:59:29.413Z,135.00
2018-11-11T11:00:29.414Z,123.75
2018-11-11T11:01:29.448Z,112.50
2018-11-11T11:02:29.430Z,112.50
2018-11-11T11:03:29.445Z,101.25
2018-11-11T11:04:29.419Z,95.63
2018-11-11T11:05:29.447Z,90.00
2018-11-11T11:06:29.473Z,90.00
2018-11-11T11:07:29.467Z,84.38
2018-11-11T11:08:29.491Z,84.38
2018-11-11T11:09:29.478Z,84.38
2018-11-11T11:10:29.491Z,78.75
2018-11-11T11:11:29.489Z,78.75
2018-11-11T11:12:29.506Z,78.75
2018-11-11T11:13:29.585Z,84.38
2018-11-11T11:14:29.497Z,84.38
2018-11-11T11:15:29.518Z,84.38
2018-11-11T11:16:29.525Z,84.38
2018-11-11T11:17:29.511Z,78.75
2018-11-11T11:18:29.517Z,78.75
2018-11-11T11:19:29.544Z,78.75
2018-11-11T11:20:29.561Z,78.75
2018-11-11T11:21:29.568Z,84.38
2018-11-11T11:22:29.567Z,73.13
2018-11-11T11:23:29.558Z,61.88
2018-11-11T11:24:29.580Z,61.88
2018-11-11T11:25:29.719Z,61.88
2018-11-11T11:26:29.578Z,56.25
2018-11-11T11:27:29.575Z,50.63
2018-11-11T11:28:29.734Z,50.63
2018-11-11T11:29:29.590Z,56.25
2018-11-11T11:30:29.594Z,67.50
2018-11-11T11:31:29.682Z,61.88
2018-11-11T11:32:29.662Z,67.50
2018-11-11T11:33:29.618Z,84.38
2018-11-11T11:34:29.698Z,101.25
2018-11-11T11:35:29.704Z,101.25
2018-11-11T11:36:29.696Z,101.25
2018-11-11T11:37:29.677Z,95.63
2018-11-11T11:38:29.699Z,90.00
2018-11-11T11:39:29.853Z,73.13
2018-11-11T11:40:29.704Z,61.88
2018-11-11T11:41:29.746Z,50.63
2018-11-11T11:42:29.685Z,50.63
2018-11-11T11:43:29.715Z,50.63
2018-11-11T11:44:29.720Z,50.63
2018-11-11T11:45:29.743Z,50.63
2018-11-11T11:46:29.710Z,50.63
2018-11-11T11:47:29.785Z,50.63
2018-11-11T11:48:29.962Z,56.25
2018-11-11T11:49:29.770Z,67.50
2018-11-11T11:50:29.798Z,67.50
2018-11-11T11:51:29.740Z,61.88
2018-11-11T11:52:29.828Z,56.25
2018-11-11T11:53:29.765Z,50.63
2018-11-11T11:54:29.842Z,50.63
2018-11-11T11:55:29.813Z,45.00
2018-11-11T11:56:30.159Z,45.00
2018-11-11T11:57:29.814Z,50.63
2018-11-11T11:58:30.360Z,56.25
2018-11-11T11:59:30.081Z,61.88
2018-11-11T12:00:29.870Z,73.13
2018-11-11T12:01:29.848Z,73.13
2018-11-11T12:02:29.824Z,67.50
2018-11-11T12:03:30.104Z,73.13
2018-11-11T12:04:29.848Z,78.75
2018-11-11T12:05:29.871Z,78.75
2018-11-11T12:06:29.906Z,73.13
2018-11-11T12:07:29.850Z,61.88
2018-11-11T12:08:29.887Z,50.63
2018-11-11T12:09:29.870Z,45.00
2018-11-11T12:10:29.915Z,45.00
2018-11-11T12:11:29.920Z,50.63
2018-11-11T12:12:29.901Z,50.63
2018-11-11T12:13:29.893Z,50.63
2018-11-11T12:14:29.923Z,56.25
2018-11-11T12:15:29.906Z,67.50
2018-11-11T12:16:32.285Z,67.50
2018-11-11T12:17:29.961Z,67.50
2018-11-11T12:18:29.946Z,61.88
2018-11-11T12:19:29.977Z,56.25
2018-11-11T12:20:29.940Z,50.63
2018-11-11T12:21:29.963Z,45.00
2018-11-11T12:22:30.004Z,56.25
2018-11-11T12:23:30.146Z,56.25
2018-11-11T12:24:30.026Z,50.63
2018-11-11T12:25:29.978Z,45.00
2018-11-11T12:26:30.022Z,45.00
2018-11-11T12:27:30.066Z,50.63
2018-11-11T12:28:30.056Z,50.63
2018-11-11T12:29:30.043Z,56.25
2018-11-11T12:30:30.042Z,61.88
2018-11-11T12:31:30.552Z,73.13
2018-11-11T12:32:30.089Z,84.38
2018-11-11T12:33:30.091Z,90.00
2018-11-11T12:34:30.076Z,90.00
2018-11-11T12:35:30.237Z,95.63
2018-11-11T12:36:30.078Z,106.88
2018-11-11T12:37:30.060Z,123.75
2018-11-11T12:38:30.122Z,135.00
2018-11-11T12:39:30.133Z,135.00
2018-11-11T12:40:30.084Z,140.63
2018-11-11T12:41:30.089Z,151.88
2018-11-11T12:42:30.099Z,163.13
2018-11-11T12:43:30.181Z,185.63
2018-11-11T12:44:30.175Z,208.13
2018-11-11T12:45:30.117Z,236.25
2018-11-11T12:46:30.139Z,253.13
2018-11-11T12:47:30.136Z,270.00
2018-11-11T12:48:30.140Z,281.25
2018-11-11T12:49:30.170Z,298.13
2018-11-11T12:50:30.316Z,309.38
2018-11-11T12:51:30.159Z,315.00
2018-11-11T12:52:30.168Z,315.00
2018-11-11T12:53:30.179Z,298.13
2018-11-11T12:54:30.223Z,286.88
2018-11-11T12:55:30.291Z,275.63
2018-11-11T12:56:30.229Z,264.38
2018-11-11T12:57:30.228Z,258.75
2018-11-11T12:58:30.215Z,253.13